MiSS Sarah — WDD9129 — position and weather

sailwx.info

Track history (hours):
 
Tides and Currents Weather Stations Pressure Air Temp Water Temp Dewpoint Dewpoint Depression Visibility Wind Speed Wind Dir Waves Ship Positions

MiSS Sarah

Owner: Whaley, Lloyd D, Brookings, OR. More information available from US FCC via Universal Licensing System and Coast Guard Vessel Documentation Center.

Last reported at 2018-Jan-11 02:37 UTC. Time now 2018-Feb-23 12:35 UTC.
Position N 47°07' W 124°51'.
Warning: this ship's position is 43 days out of date.

Length 33 m.

Type: Fishing. MMSI: 368206000.

Date/timePositionNaut miles runAvg speedWind from/ knotsBaromVisibWave heightAir tempDewpointWater temp
2018-Jan-11 02:37N 47°07' W 124°51'110.2
2018-Jan-11 02:30N 47°06' W 124°50'5 9.9
2018-Jan-11 02:00N 47°03' W 124°45'5 9.3
2018-Jan-11 01:30N 46°59' W 124°40'5 9.3
2018-Jan-11 01:00N 46°55' W 124°36'5 9.5
2018-Jan-11 00:30N 46°51' W 124°32'5 9.4
2018-Jan-11 00:01N 46°47' W 124°29'510.5
2018-Jan-10 23:30N 46°42' W 124°26'510.1
2018-Jan-10 23:00N 46°38' W 124°22'5 9.2
2018-Jan-10 22:30N 46°34' W 124°20'5 9.2
2018-Jan-10 22:00N 46°29' W 124°18'5 9.6
2018-Jan-10 21:31N 46°25' W 124°17'5 9.7
2018-Jan-10 21:00N 46°20' W 124°16'510.0
2018-Jan-10 20:30N 46°16' W 124°11'810.9
2018-Jan-10 19:48N 46°15' W 124°00'413.4
2018-Jan-10 19:29N 46°12' W 123°56'3 5.8
2018-Jan-10 19:00N 46°11' W 123°52'0 0.0
2018-Jan-10 18:30N 46°11' W 123°52'1 2.1
2018-Jan-10 18:00N 46°12' W 123°50'0 0.0
2018-Jan-10 17:30N 46°12' W 123°50'0 0.0
2018-Jan-10 17:00N 46°12' W 123°50'0 0.0
2018-Jan-10 16:30N 46°12' W 123°50'2 3.4
2018-Jan-10 16:01N 46°11' W 123°53'5 9.1
2018-Jan-10 15:30N 46°14' W 123°58'5 9.5
2018-Jan-10 15:01N 46°15' W 124°05'5 9.1
2018-Jan-10 14:31N 46°12' W 124°09'5 9.6
2018-Jan-10 14:00N 46°07' W 124°09'6 9.6
2018-Jan-10 13:22N 46°01' W 124°09'3 9.4
2018-Jan-10 13:00N 45°57' W 124°09'5 9.4
2018-Jan-10 12:30N 45°53' W 124°09'5 9.4
2018-Jan-10 12:00N 45°48' W 124°09'5 9.4
2018-Jan-10 11:31N 45°43' W 124°09'5 9.5
2018-Jan-10 11:01N 45°39' W 124°09'5 9.7
2018-Jan-10 10:30N 45°34' W 124°10'5 9.6
2018-Jan-10 10:00N 45°29' W 124°10'5 9.4
2018-Jan-10 09:31N 45°24' W 124°10'5 9.3
2018-Jan-10 09:00N 45°20' W 124°11'5 9.3
2018-Jan-10 08:30N 45°15' W 124°11'  
Track history (hours):
 
Tides and Currents Weather Stations Pressure Air Temp Water Temp Dewpoint Dewpoint Depression Visibility Wind Speed Wind Dir Waves Ship Positions

MiSS Sarah

Owner: Whaley, Lloyd D, Brookings, OR. More information available from US FCC via Universal Licensing System and Coast Guard Vessel Documentation Center.

Last reported at 2018-Jan-11 02:37 UTC. Time now 2018-Feb-23 12:35 UTC.
Position N 47°07' W 124°51'.
Warning: this ship's position is 43 days out of date.

Length 33 m.

Type: Fishing. MMSI: 368206000.

Date/timePositionNaut miles runAvg speedWind from/ knotsBaromVisibWave heightAir tempDewpointWater temp
2018-Jan-11 02:37N 47°07' W 124°51'110.2
2018-Jan-11 02:30N 47°06' W 124°50'5 9.9
2018-Jan-11 02:00N 47°03' W 124°45'5 9.3
2018-Jan-11 01:30N 46°59' W 124°40'5 9.3
2018-Jan-11 01:00N 46°55' W 124°36'5 9.5
2018-Jan-11 00:30N 46°51' W 124°32'5 9.4
2018-Jan-11 00:01N 46°47' W 124°29'510.5
2018-Jan-10 23:30N 46°42' W 124°26'510.1
2018-Jan-10 23:00N 46°38' W 124°22'5 9.2
2018-Jan-10 22:30N 46°34' W 124°20'5 9.2
2018-Jan-10 22:00N 46°29' W 124°18'5 9.6
2018-Jan-10 21:31N 46°25' W 124°17'5 9.7
2018-Jan-10 21:00N 46°20' W 124°16'510.0
2018-Jan-10 20:30N 46°16' W 124°11'810.9
2018-Jan-10 19:48N 46°15' W 124°00'413.4
2018-Jan-10 19:29N 46°12' W 123°56'3 5.8
2018-Jan-10 19:00N 46°11' W 123°52'0 0.0
2018-Jan-10 18:30N 46°11' W 123°52'1 2.1
2018-Jan-10 18:00N 46°12' W 123°50'0 0.0
2018-Jan-10 17:30N 46°12' W 123°50'0 0.0
2018-Jan-10 17:00N 46°12' W 123°50'0 0.0
2018-Jan-10 16:30N 46°12' W 123°50'2 3.4
2018-Jan-10 16:01N 46°11' W 123°53'5 9.1
2018-Jan-10 15:30N 46°14' W 123°58'5 9.5
2018-Jan-10 15:01N 46°15' W 124°05'5 9.1
2018-Jan-10 14:31N 46°12' W 124°09'5 9.6
2018-Jan-10 14:00N 46°07' W 124°09'6 9.6
2018-Jan-10 13:22N 46°01' W 124°09'3 9.4
2018-Jan-10 13:00N 45°57' W 124°09'5 9.4
2018-Jan-10 12:30N 45°53' W 124°09'5 9.4
2018-Jan-10 12:00N 45°48' W 124°09'5 9.4
2018-Jan-10 11:31N 45°43' W 124°09'5 9.5
2018-Jan-10 11:01N 45°39' W 124°09'5 9.7
2018-Jan-10 10:30N 45°34' W 124°10'5 9.6
2018-Jan-10 10:00N 45°29' W 124°10'5 9.4
2018-Jan-10 09:31N 45°24' W 124°10'5 9.3
2018-Jan-10 09:00N 45°20' W 124°11'5 9.3
2018-Jan-10 08:30N 45°15' W 124°11'  

Dump ship's entire track history